createdAt,value
2022-07-26T00:00:33.475Z,22.04
2022-07-26T00:01:43.127Z,22.06
2022-07-26T00:02:47.896Z,22.07
2022-07-26T00:03:50.596Z,22.09
2022-07-26T00:04:52.451Z,22.10
2022-07-26T00:05:53.853Z,22.13
2022-07-26T00:06:55.362Z,22.14
2022-07-26T00:08:09.930Z,22.15
2022-07-26T00:09:11.978Z,22.18
2022-07-26T00:10:14.054Z,22.19
2022-07-26T00:11:15.499Z,22.21
2022-07-26T00:12:16.928Z,22.22
2022-07-26T00:13:19.961Z,22.23
2022-07-26T00:14:21.657Z,22.24
2022-07-26T00:15:23.249Z,22.25
2022-07-26T00:16:24.937Z,22.26
2022-07-26T00:17:26.483Z,22.28
2022-07-26T00:18:28.181Z,22.29
2022-07-26T00:19:29.642Z,22.29
2022-07-26T00:20:31.552Z,22.31
2022-07-26T00:21:36.201Z,22.32
2022-07-26T00:22:39.143Z,22.32
2022-07-26T00:23:40.622Z,22.33
2022-07-26T00:24:42.099Z,22.33
2022-07-26T00:25:43.603Z,22.34
2022-07-26T00:26:44.986Z,22.34
2022-07-26T00:27:46.467Z,22.34
2022-07-26T00:28:47.882Z,22.35
2022-07-26T00:29:49.315Z,22.35
2022-07-26T00:30:51.009Z,22.35
2022-07-26T00:31:52.673Z,22.35
2022-07-26T00:32:54.351Z,22.35
2022-07-26T00:33:55.844Z,22.35
2022-07-26T00:34:57.292Z,22.35
2022-07-26T00:35:58.884Z,22.36
2022-07-26T00:37:00.545Z,22.35
2022-07-26T00:38:02.013Z,22.36
2022-07-26T00:39:03.398Z,22.36
2022-07-26T00:40:05.697Z,22.36
2022-07-26T00:41:10.561Z,22.35
2022-07-26T00:42:13.426Z,22.35
2022-07-26T00:43:14.871Z,22.35
2022-07-26T00:44:16.951Z,22.35
2022-07-26T00:45:18.429Z,22.34
2022-07-26T00:46:19.989Z,22.34
2022-07-26T00:47:21.662Z,22.34
2022-07-26T00:48:23.321Z,22.33
2022-07-26T00:49:24.844Z,22.33
2022-07-26T00:50:26.351Z,22.33
2022-07-26T00:51:28.641Z,22.33
2022-07-26T00:52:30.264Z,22.32
2022-07-26T00:53:31.759Z,22.32
2022-07-26T00:54:33.215Z,22.32
2022-07-26T00:55:34.716Z,22.32
2022-07-26T00:56:37.218Z,22.32
2022-07-26T00:57:39.123Z,22.31
2022-07-26T00:58:41.431Z,22.32
2022-07-26T00:59:45.943Z,22.31
2022-07-26T01:00:47.569Z,22.31
2022-07-26T01:01:49.466Z,22.31
2022-07-26T01:02:51.130Z,22.31
2022-07-26T01:03:53.418Z,22.32
2022-07-26T01:04:54.832Z,22.31
2022-07-26T01:05:56.303Z,22.31
2022-07-26T01:06:58.113Z,22.31
2022-07-26T01:07:59.959Z,22.32
2022-07-26T01:09:02.686Z,22.31
2022-07-26T01:10:05.359Z,22.31
2022-07-26T01:11:06.924Z,22.30
2022-07-26T01:12:08.750Z,22.30
2022-07-26T01:13:10.149Z,22.30
2022-07-26T01:14:11.723Z,22.30
2022-07-26T01:15:14.035Z,22.30
2022-07-26T01:16:16.669Z,22.29
2022-07-26T01:17:18.316Z,22.29
2022-07-26T01:18:19.866Z,22.29
2022-07-26T01:19:21.503Z,22.29
2022-07-26T01:20:22.944Z,22.29
2022-07-26T01:21:30.988Z,22.29
2022-07-26T01:22:32.614Z,22.29
2022-07-26T01:23:34.126Z,22.29
2022-07-26T01:24:35.626Z,22.29
2022-07-26T01:25:43.700Z,22.28
2022-07-26T01:26:47.515Z,22.28
2022-07-26T01:27:49.394Z,22.28
2022-07-26T01:28:51.098Z,22.27
2022-07-26T01:29:52.888Z,22.27
2022-07-26T01:32:21.864Z,22.26
2022-07-26T01:33:27.403Z,22.25
2022-07-26T01:34:29.071Z,22.24
2022-07-26T01:35:30.730Z,22.23
2022-07-26T01:36:32.305Z,22.23
2022-07-26T01:37:33.951Z,22.22
2022-07-26T01:38:35.519Z,22.22
2022-07-26T01:39:37.177Z,22.21
2022-07-26T01:40:38.747Z,22.20
2022-07-26T01:41:40.427Z,22.19
2022-07-26T01:42:42.179Z,22.19
2022-07-26T01:43:43.928Z,22.18
2022-07-26T01:44:45.489Z,22.18
2022-07-26T01:45:47.214Z,22.17
2022-07-26T01:46:48.965Z,22.16
2022-07-26T01:47:50.452Z,22.15
2022-07-26T01:48:52.173Z,22.15
2022-07-26T01:49:53.794Z,22.14
2022-07-26T01:50:55.377Z,22.14
2022-07-26T01:51:56.910Z,22.13
2022-07-26T01:52:58.542Z,22.13
2022-07-26T01:54:00.766Z,22.11
2022-07-26T01:55:02.710Z,22.12
2022-07-26T01:56:04.418Z,22.10
2022-07-26T01:57:05.949Z,22.10
2022-07-26T01:58:07.481Z,22.09
2022-07-26T01:59:09.130Z,22.09
2022-07-26T02:00:11.067Z,22.08
2022-07-26T02:01:12.802Z,22.07
2022-07-26T02:02:14.430Z,22.07
2022-07-26T02:03:16.183Z,22.06
2022-07-26T02:04:38.159Z,22.05
2022-07-26T02:05:39.690Z,22.04
2022-07-26T02:06:41.214Z,22.04
2022-07-26T02:07:44.632Z,22.03
2022-07-26T02:08:46.427Z,22.03
2022-07-26T02:09:48.314Z,22.03
2022-07-26T02:11:03.372Z,22.02
2022-07-26T02:12:05.773Z,22.01
2022-07-26T02:13:07.823Z,22.02
2022-07-26T02:14:10.902Z,22.02
2022-07-26T02:15:13.628Z,22.01
2022-07-26T02:16:15.238Z,22.01
2022-07-26T02:17:16.915Z,22.01
2022-07-26T02:18:18.547Z,22.01
2022-07-26T02:19:20.287Z,22.02
2022-07-26T02:20:22.101Z,22.02
2022-07-26T02:21:23.576Z,22.01
2022-07-26T02:22:25.163Z,22.01
2022-07-26T02:23:28.526Z,22.01
2022-07-26T02:24:30.767Z,22.00
2022-07-26T02:25:32.498Z,22.00
2022-07-26T02:26:34.047Z,21.99
2022-07-26T02:27:35.643Z,21.99
2022-07-26T02:28:54.547Z,21.98
2022-07-26T02:30:21.551Z,21.95
2022-07-26T02:31:23.271Z,21.96
2022-07-26T02:32:33.818Z,21.96
2022-07-26T02:33:35.465Z,21.95
2022-07-26T02:34:37.047Z,21.95
2022-07-26T02:35:38.771Z,21.95
2022-07-26T02:36:40.441Z,21.94
2022-07-26T02:37:43.502Z,21.93
2022-07-26T02:38:45.492Z,21.92
2022-07-26T02:39:47.048Z,21.91
2022-07-26T02:40:49.870Z,21.91
2022-07-26T02:41:51.436Z,21.90
2022-07-26T02:42:53.017Z,21.89
2022-07-26T02:43:54.642Z,21.89
2022-07-26T02:44:56.143Z,21.88
2022-07-26T02:46:01.749Z,21.88
2022-07-26T02:47:04.377Z,21.88
2022-07-26T02:48:06.461Z,21.87
2022-07-26T02:49:08.813Z,21.87
2022-07-26T02:50:10.494Z,21.87
2022-07-26T02:51:12.055Z,21.87
2022-07-26T02:52:13.707Z,21.87
2022-07-26T02:53:15.244Z,21.87
2022-07-26T02:54:16.722Z,21.87
2022-07-26T02:55:19.503Z,21.87
2022-07-26T02:56:21.043Z,21.88
2022-07-26T02:57:22.986Z,21.88
2022-07-26T02:58:26.222Z,21.88
2022-07-26T02:59:27.802Z,21.88
2022-07-26T03:00:29.818Z,21.88
2022-07-26T03:01:31.575Z,21.89
2022-07-26T03:02:33.335Z,21.89
2022-07-26T03:03:36.731Z,21.89
2022-07-26T03:04:39.801Z,21.90
2022-07-26T03:05:41.345Z,21.90
2022-07-26T03:06:42.895Z,21.90
2022-07-26T03:07:44.475Z,21.91
2022-07-26T03:08:46.857Z,21.91
2022-07-26T03:09:48.369Z,21.90
2022-07-26T03:10:49.907Z,21.89
2022-07-26T03:11:51.786Z,21.89
2022-07-26T03:12:53.450Z,21.88
2022-07-26T03:13:54.927Z,21.88
2022-07-26T03:14:56.453Z,21.85
2022-07-26T03:15:58.014Z,21.82
2022-07-26T03:16:59.728Z,21.81
2022-07-26T03:18:01.434Z,21.80
2022-07-26T03:19:02.973Z,21.79
2022-07-26T03:20:05.009Z,21.78
2022-07-26T03:21:06.674Z,21.78
2022-07-26T03:22:08.301Z,21.79
2022-07-26T03:23:09.919Z,21.80
2022-07-26T03:24:11.755Z,21.80
2022-07-26T03:25:13.662Z,21.81
2022-07-26T03:26:15.287Z,21.83
2022-07-26T03:27:16.853Z,21.83
2022-07-26T03:28:19.740Z,21.83
2022-07-26T03:29:21.420Z,21.83
2022-07-26T03:30:24.702Z,21.84
2022-07-26T03:31:28.126Z,21.83
2022-07-26T03:32:29.802Z,21.82
2022-07-26T03:33:31.547Z,21.81
2022-07-26T03:34:33.265Z,21.81
2022-07-26T03:35:36.481Z,21.79
2022-07-26T03:36:38.311Z,21.78
2022-07-26T03:37:45.963Z,21.77
2022-07-26T03:38:48.504Z,21.76
2022-07-26T03:39:50.051Z,21.76
2022-07-26T03:40:51.748Z,21.75
2022-07-26T03:41:53.266Z,21.74
2022-07-26T03:42:54.869Z,21.75
2022-07-26T03:43:56.803Z,21.75
2022-07-26T03:44:58.320Z,21.74
2022-07-26T03:45:59.852Z,21.74
2022-07-26T03:47:01.593Z,21.73
2022-07-26T03:48:03.238Z,21.68
2022-07-26T03:49:04.947Z,21.62
2022-07-26T03:50:06.988Z,21.57
2022-07-26T03:51:08.661Z,21.55
2022-07-26T03:52:10.343Z,21.53
2022-07-26T03:53:11.977Z,21.51
2022-07-26T03:54:13.615Z,21.49
2022-07-26T03:55:33.848Z,21.47
2022-07-26T03:56:35.655Z,21.44
2022-07-26T03:57:37.195Z,21.39
2022-07-26T03:58:38.820Z,21.33
2022-07-26T03:59:40.872Z,21.26
2022-07-26T04:00:42.807Z,21.22
2022-07-26T04:01:44.975Z,21.21
2022-07-26T04:02:46.601Z,21.18
2022-07-26T04:03:48.221Z,21.15
2022-07-26T04:04:49.838Z,21.11
2022-07-26T04:05:52.569Z,21.08
2022-07-26T04:06:55.949Z,21.07
2022-07-26T04:07:57.851Z,21.07
2022-07-26T04:09:00.767Z,21.05
2022-07-26T04:10:02.561Z,21.04
2022-07-26T04:11:04.286Z,21.00
2022-07-26T04:12:05.889Z,20.96
2022-07-26T04:13:07.452Z,20.93
2022-07-26T04:14:09.910Z,20.89
2022-07-26T04:15:11.903Z,20.83
2022-07-26T04:16:13.796Z,20.79
2022-07-26T04:17:15.394Z,20.77
2022-07-26T04:18:17.167Z,20.74
2022-07-26T04:19:18.760Z,20.71
2022-07-26T04:20:20.650Z,20.69
2022-07-26T04:21:23.321Z,20.68
2022-07-26T04:22:24.849Z,20.68
2022-07-26T04:23:26.446Z,20.70
2022-07-26T04:24:28.066Z,20.69
2022-07-26T04:25:40.970Z,20.65
2022-07-26T04:26:43.133Z,20.62
2022-07-26T04:27:44.846Z,20.61
2022-07-26T04:28:46.492Z,20.59
2022-07-26T04:29:48.562Z,20.57
2022-07-26T04:30:50.326Z,20.58
2022-07-26T04:31:52.000Z,20.58
2022-07-26T04:32:53.541Z,20.59
2022-07-26T04:33:55.148Z,20.60
2022-07-26T04:34:56.984Z,20.61
2022-07-26T04:35:58.842Z,20.60
2022-07-26T04:37:00.476Z,20.60
2022-07-26T04:38:03.453Z,20.61
2022-07-26T04:39:05.021Z,20.62
2022-07-26T04:40:07.654Z,20.63
2022-07-26T04:41:09.431Z,20.65
2022-07-26T04:42:11.277Z,20.66
2022-07-26T04:43:15.762Z,20.68
2022-07-26T04:44:17.678Z,20.69
2022-07-26T04:45:19.834Z,20.69
2022-07-26T04:46:21.678Z,20.69
2022-07-26T04:47:23.502Z,20.70
2022-07-26T04:48:25.260Z,20.72
2022-07-26T04:49:26.875Z,20.71
2022-07-26T04:50:28.698Z,20.71
2022-07-26T04:51:30.334Z,20.74
2022-07-26T04:52:32.746Z,20.76
2022-07-26T04:53:35.599Z,20.78
2022-07-26T04:54:37.207Z,20.80
2022-07-26T04:55:39.214Z,20.81
2022-07-26T04:56:40.932Z,20.82
2022-07-26T04:57:42.863Z,20.83
2022-07-26T04:58:44.653Z,20.83
2022-07-26T04:59:58.154Z,20.83
2022-07-26T05:01:10.702Z,20.84
2022-07-26T05:02:14.596Z,20.85
2022-07-26T05:03:16.303Z,20.86
2022-07-26T05:04:17.943Z,20.86
2022-07-26T05:05:20.100Z,20.85
2022-07-26T05:06:21.807Z,20.85
2022-07-26T05:07:24.617Z,20.85
2022-07-26T05:08:26.276Z,20.83
2022-07-26T05:09:28.623Z,20.82
2022-07-26T05:10:34.698Z,20.80
2022-07-26T05:11:36.277Z,20.77
2022-07-26T05:12:37.992Z,20.75
2022-07-26T05:13:39.628Z,20.70
2022-07-26T05:14:41.295Z,20.66
2022-07-26T05:15:43.077Z,20.64
2022-07-26T05:16:47.172Z,20.62
2022-07-26T05:17:49.120Z,20.61
2022-07-26T05:18:50.721Z,20.59
2022-07-26T05:19:54.476Z,20.58
2022-07-26T05:20:56.427Z,20.55
2022-07-26T05:21:58.179Z,20.53
2022-07-26T05:23:00.029Z,20.52
2022-07-26T05:24:01.668Z,20.51
2022-07-26T05:25:04.114Z,20.49
2022-07-26T05:26:05.641Z,20.46
2022-07-26T05:27:07.382Z,20.43
2022-07-26T05:28:09.015Z,20.40
2022-07-26T05:29:10.720Z,20.38
2022-07-26T05:30:12.551Z,20.35
2022-07-26T05:31:14.119Z,20.34
2022-07-26T05:32:16.223Z,20.35
2022-07-26T05:33:18.022Z,20.35
2022-07-26T05:34:19.698Z,20.35
2022-07-26T05:35:21.553Z,20.36
2022-07-26T05:36:23.236Z,20.37
2022-07-26T05:37:25.207Z,20.37
2022-07-26T05:38:27.092Z,20.37
2022-07-26T05:39:28.664Z,20.38
2022-07-26T05:40:30.247Z,20.40
2022-07-26T05:41:31.933Z,20.41
2022-07-26T05:42:33.624Z,20.42
2022-07-26T05:43:41.066Z,20.42
2022-07-26T05:44:43.353Z,20.43
2022-07-26T05:45:46.218Z,20.41
2022-07-26T05:46:47.832Z,20.39
2022-07-26T05:47:50.275Z,20.36
2022-07-26T05:48:52.188Z,20.35
2022-07-26T05:49:54.669Z,20.35
2022-07-26T05:50:56.352Z,20.36
2022-07-26T05:52:01.184Z,20.36
2022-07-26T05:53:03.389Z,20.36
2022-07-26T05:54:05.588Z,20.34
2022-07-26T05:55:07.670Z,20.35
2022-07-26T05:56:10.292Z,20.35
2022-07-26T05:57:11.839Z,20.35
2022-07-26T05:58:13.413Z,20.36
2022-07-26T05:59:15.212Z,20.35
2022-07-26T06:00:16.814Z,20.34
2022-07-26T06:01:18.527Z,20.35
2022-07-26T06:02:21.340Z,20.35
2022-07-26T06:03:23.043Z,20.35
2022-07-26T06:04:26.632Z,20.34
2022-07-26T06:05:28.379Z,20.33
2022-07-26T06:06:29.897Z,20.31
2022-07-26T06:07:31.561Z,20.28
2022-07-26T06:08:33.487Z,20.23
2022-07-26T06:09:35.107Z,20.17
2022-07-26T06:10:36.856Z,20.12
2022-07-26T06:11:38.412Z,20.08
2022-07-26T06:12:40.752Z,20.05
2022-07-26T06:13:42.492Z,20.01
2022-07-26T06:14:44.688Z,19.99
2022-07-26T06:15:46.280Z,19.95
2022-07-26T06:16:48.088Z,19.92
2022-07-26T06:17:49.649Z,19.88
2022-07-26T06:18:51.224Z,19.83
2022-07-26T06:19:52.926Z,19.80
2022-07-26T06:20:55.219Z,19.78
2022-07-26T06:21:56.867Z,19.75
2022-07-26T06:22:58.902Z,19.72
2022-07-26T06:24:00.771Z,19.69
2022-07-26T06:25:02.745Z,19.67
2022-07-26T06:26:05.197Z,19.64
2022-07-26T06:27:07.587Z,19.62
2022-07-26T06:28:10.221Z,19.56
2022-07-26T06:29:12.204Z,19.51
2022-07-26T06:30:13.967Z,19.48
2022-07-26T06:31:16.861Z,19.46
2022-07-26T06:32:18.407Z,19.45
2022-07-26T06:33:19.971Z,19.44
2022-07-26T06:34:21.501Z,19.41
2022-07-26T06:35:23.751Z,19.41
2022-07-26T06:36:30.334Z,19.38
2022-07-26T06:37:35.008Z,19.36
2022-07-26T06:38:39.053Z,19.36
2022-07-26T06:39:40.631Z,19.35
2022-07-26T06:40:42.398Z,19.35
2022-07-26T06:41:44.026Z,19.35
2022-07-26T06:42:45.538Z,19.34
2022-07-26T06:43:47.074Z,19.34
2022-07-26T06:44:48.803Z,19.34
2022-07-26T06:45:50.679Z,19.34
2022-07-26T06:46:52.360Z,19.34
2022-07-26T06:47:54.355Z,19.35
2022-07-26T06:48:57.081Z,19.38
2022-07-26T06:49:58.849Z,19.40
2022-07-26T06:51:00.592Z,19.43
2022-07-26T06:52:02.165Z,19.46
2022-07-26T06:53:03.737Z,19.50
2022-07-26T06:54:06.080Z,19.55
2022-07-26T06:55:12.569Z,19.59
2022-07-26T06:56:16.483Z,19.61
2022-07-26T06:57:18.110Z,19.64
2022-07-26T06:58:19.682Z,19.67
2022-07-26T06:59:21.295Z,19.70
2022-07-26T07:00:22.968Z,19.73
2022-07-26T07:01:55.671Z,19.75
2022-07-26T07:02:46.674Z,19.77
2022-07-26T07:03:48.325Z,19.79
2022-07-26T07:04:50.104Z,19.79
2022-07-26T07:05:51.773Z,19.79
2022-07-26T07:06:53.541Z,19.80
2022-07-26T07:07:56.872Z,19.79
2022-07-26T07:08:58.981Z,19.78
2022-07-26T07:10:00.916Z,19.77
2022-07-26T07:11:02.516Z,19.75
2022-07-26T07:12:09.813Z,19.75
2022-07-26T07:13:12.393Z,19.76
2022-07-26T07:14:14.036Z,19.75
2022-07-26T07:15:15.548Z,19.75
2022-07-26T07:16:17.407Z,19.74
2022-07-26T07:17:20.460Z,19.75
2022-07-26T07:18:22.273Z,19.75
2022-07-26T07:19:24.565Z,19.74
2022-07-26T07:20:27.690Z,19.73
2022-07-26T07:21:29.320Z,19.74
2022-07-26T07:22:31.785Z,19.72
2022-07-26T07:23:33.428Z,19.72
2022-07-26T07:24:34.974Z,19.72
2022-07-26T07:25:36.510Z,19.71
2022-07-26T07:26:38.979Z,19.71
2022-07-26T07:27:40.823Z,19.69
2022-07-26T07:28:42.702Z,19.69
2022-07-26T07:29:44.766Z,19.68
2022-07-26T07:30:46.992Z,19.67
2022-07-26T07:31:49.950Z,19.66
2022-07-26T07:32:52.077Z,19.64
2022-07-26T07:33:54.066Z,19.62
2022-07-26T07:34:55.646Z,19.62
2022-07-26T07:35:57.355Z,19.63
2022-07-26T07:37:00.102Z,19.63
2022-07-26T07:38:02.682Z,19.62
2022-07-26T07:39:06.616Z,19.62
2022-07-26T07:40:09.995Z,19.62
2022-07-26T07:41:11.620Z,19.65
2022-07-26T07:42:13.299Z,19.68
2022-07-26T07:43:14.979Z,19.70
2022-07-26T07:44:16.713Z,19.72
2022-07-26T07:45:18.559Z,19.75
2022-07-26T07:46:20.219Z,19.78
2022-07-26T07:47:21.907Z,19.82
2022-07-26T07:48:23.572Z,19.85
2022-07-26T07:49:25.362Z,19.87
2022-07-26T07:50:28.428Z,19.90
2022-07-26T07:51:30.255Z,19.92
2022-07-26T07:52:32.016Z,19.97
2022-07-26T07:53:33.799Z,20.00
2022-07-26T07:54:35.480Z,20.03
2022-07-26T07:55:41.366Z,20.07
2022-07-26T07:56:45.760Z,20.09
2022-07-26T07:57:47.465Z,20.13
2022-07-26T07:58:49.191Z,20.16
2022-07-26T07:59:54.152Z,20.19
2022-07-26T08:00:55.838Z,20.23
2022-07-26T08:01:58.351Z,20.26
2022-07-26T08:03:00.016Z,20.29
2022-07-26T08:04:01.835Z,20.32
2022-07-26T08:05:11.450Z,20.34
2022-07-26T08:06:16.221Z,20.37
2022-07-26T08:07:17.815Z,20.39
2022-07-26T08:08:22.028Z,20.42
2022-07-26T08:09:24.958Z,20.43
2022-07-26T08:10:30.486Z,20.45
2022-07-26T08:11:32.267Z,20.48
2022-07-26T08:12:35.919Z,20.53
2022-07-26T08:13:37.630Z,20.57
2022-07-26T08:14:39.398Z,20.60
2022-07-26T08:15:43.122Z,20.63
2022-07-26T08:16:44.946Z,20.65
2022-07-26T08:17:51.061Z,20.67
2022-07-26T08:18:57.630Z,20.70
2022-07-26T08:20:00.639Z,20.73
2022-07-26T08:21:03.238Z,20.76
2022-07-26T08:22:07.679Z,20.78
2022-07-26T08:23:09.878Z,20.80
2022-07-26T08:24:11.784Z,20.84
2022-07-26T08:25:13.591Z,20.86
2022-07-26T08:26:15.387Z,20.88
2022-07-26T08:27:17.301Z,20.93
2022-07-26T08:28:38.057Z,20.96
2022-07-26T08:29:40.636Z,20.99
2022-07-26T08:30:42.513Z,21.01
2022-07-26T08:31:44.513Z,21.02
2022-07-26T08:32:46.377Z,21.03
2022-07-26T08:33:48.132Z,21.06
2022-07-26T08:34:49.874Z,21.09
2022-07-26T08:35:53.214Z,21.12
2022-07-26T08:37:15.928Z,21.13
2022-07-26T08:38:18.588Z,21.15
2022-07-26T08:39:20.163Z,21.19
2022-07-26T08:40:21.873Z,21.22
2022-07-26T08:41:23.640Z,21.25
2022-07-26T08:42:25.457Z,21.27
2022-07-26T08:43:27.948Z,21.32
2022-07-26T08:44:29.991Z,21.36
2022-07-26T08:45:31.833Z,21.38
2022-07-26T08:46:34.740Z,21.40
2022-07-26T08:47:50.268Z,21.46
2022-07-26T08:48:58.143Z,21.52
2022-07-26T08:49:59.861Z,21.58
2022-07-26T08:51:06.002Z,21.61
2022-07-26T08:52:14.260Z,21.64
2022-07-26T08:53:16.219Z,21.69
2022-07-26T08:54:17.878Z,21.74
2022-07-26T08:55:20.096Z,21.80
2022-07-26T15:07:14.819Z,28.77
2022-07-26T15:08:16.517Z,28.98
2022-07-26T15:09:18.068Z,29.14
2022-07-26T15:10:28.543Z,29.20
2022-07-26T15:11:30.289Z,29.50
2022-07-26T15:12:32.000Z,29.92
2022-07-26T15:13:33.916Z,30.11
2022-07-26T15:14:36.526Z,30.10
2022-07-26T15:15:38.103Z,30.01
2022-07-26T15:16:39.738Z,29.87
2022-07-26T15:17:41.492Z,29.78
2022-07-26T15:18:43.325Z,29.84
2022-07-26T15:19:44.817Z,30.00
2022-07-26T15:20:46.307Z,29.99
2022-07-26T15:21:50.316Z,29.91
2022-07-26T15:22:54.915Z,29.79
2022-07-26T15:23:56.623Z,29.64
2022-07-26T15:24:58.360Z,29.58
2022-07-26T15:25:59.830Z,29.76
2022-07-26T15:27:01.486Z,29.89
2022-07-26T15:28:03.520Z,29.88
2022-07-26T15:29:05.226Z,29.83
2022-07-26T15:30:11.627Z,29.68
2022-07-26T15:31:15.252Z,29.43
2022-07-26T15:32:16.904Z,29.22
2022-07-26T15:33:20.076Z,29.04
2022-07-26T15:34:21.865Z,28.86
2022-07-26T15:35:23.411Z,28.63
2022-07-26T15:36:25.056Z,28.41
2022-07-26T15:37:28.235Z,28.21
2022-07-26T15:38:29.966Z,27.98
2022-07-26T15:39:31.687Z,27.81
2022-07-26T15:40:33.434Z,27.67
2022-07-26T15:41:34.972Z,27.56
2022-07-26T15:42:41.520Z,27.42
2022-07-26T15:43:48.937Z,27.24
2022-07-26T15:44:51.050Z,27.12
2022-07-26T15:45:54.751Z,27.02
2022-07-26T15:46:56.336Z,26.92
2022-07-26T15:48:09.414Z,26.82
2022-07-26T15:49:16.377Z,26.67
2022-07-26T15:50:18.250Z,26.57
2022-07-26T15:51:23.989Z,26.48
2022-07-26T15:52:25.539Z,26.40
2022-07-26T15:53:28.888Z,26.39
2022-07-26T15:54:30.972Z,26.38
2022-07-26T15:55:32.978Z,26.37
2022-07-26T15:56:34.843Z,26.34
2022-07-26T15:57:36.875Z,26.31
2022-07-26T15:58:38.497Z,26.29
2022-07-26T15:59:40.699Z,26.24
2022-07-26T16:00:42.412Z,26.19
2022-07-26T16:01:43.948Z,26.16
2022-07-26T16:02:45.561Z,26.13
2022-07-26T16:03:47.290Z,26.09
2022-07-26T16:04:48.972Z,26.01
2022-07-26T16:05:50.655Z,25.93
2022-07-26T16:06:52.194Z,25.89
2022-07-26T16:07:53.761Z,25.83
2022-07-26T16:09:15.109Z,25.80
2022-07-26T16:10:17.103Z,25.78
2022-07-26T16:11:18.829Z,25.76
2022-07-26T16:12:20.546Z,25.74
2022-07-26T16:13:22.104Z,25.71
2022-07-26T16:14:23.618Z,25.68
2022-07-26T16:15:25.401Z,25.63
2022-07-26T16:16:27.072Z,25.59
2022-07-26T16:17:28.616Z,25.53
2022-07-26T16:18:30.075Z,25.48
2022-07-26T16:19:31.641Z,25.42
2022-07-26T16:20:33.785Z,25.37
2022-07-26T16:21:36.452Z,25.33
2022-07-26T16:22:41.271Z,25.27
2022-07-26T16:23:42.939Z,25.22
2022-07-26T16:24:44.510Z,25.16
2022-07-26T16:25:46.143Z,25.09
2022-07-26T16:26:47.915Z,25.03
2022-07-26T16:27:50.020Z,24.99
2022-07-26T16:28:52.513Z,24.93
2022-07-26T16:29:54.280Z,24.90
2022-07-26T16:30:56.012Z,24.90
2022-07-26T16:31:57.904Z,24.90
2022-07-26T16:32:59.454Z,24.91
2022-07-26T16:34:01.053Z,24.90
2022-07-26T16:35:03.310Z,24.87
2022-07-26T16:36:06.462Z,24.79
2022-07-26T16:37:08.520Z,24.73
2022-07-26T16:38:10.114Z,24.71
2022-07-26T16:39:12.496Z,24.70
2022-07-26T16:40:14.471Z,24.68
2022-07-26T16:41:16.786Z,24.66
2022-07-26T16:42:18.428Z,24.65
2022-07-26T16:43:19.970Z,24.63
2022-07-26T16:44:23.388Z,24.61
2022-07-26T16:45:25.029Z,24.59
2022-07-26T16:46:26.887Z,24.57
2022-07-26T16:47:28.718Z,24.54
2022-07-26T16:48:30.319Z,24.52
2022-07-26T16:49:32.037Z,24.51
2022-07-26T16:50:33.787Z,24.47
2022-07-26T16:51:35.811Z,24.40
2022-07-26T16:52:37.507Z,24.30
2022-07-26T16:53:39.903Z,24.21
2022-07-26T16:54:41.557Z,24.12
2022-07-26T16:55:44.649Z,24.04
2022-07-26T16:56:46.383Z,23.98
2022-07-26T16:57:48.176Z,23.90
2022-07-26T16:58:49.721Z,23.87
2022-07-26T16:59:51.355Z,23.81
2022-07-26T17:00:53.045Z,23.73
2022-07-26T17:01:54.918Z,23.65
2022-07-26T17:02:56.785Z,23.58
2022-07-26T17:03:58.597Z,23.52
2022-07-26T17:05:00.690Z,23.48
2022-07-26T17:06:06.785Z,23.42
2022-07-26T17:07:24.427Z,23.32
2022-07-26T17:08:27.500Z,23.23
2022-07-26T17:09:29.104Z,23.17
2022-07-26T17:10:30.667Z,23.09
2022-07-26T17:11:32.355Z,23.01
2022-07-26T17:12:35.009Z,22.89
2022-07-26T17:13:36.748Z,22.78
2022-07-26T17:14:38.343Z,22.70
2022-07-26T17:15:39.928Z,22.64
2022-07-26T17:16:41.509Z,22.60
2022-07-26T17:17:48.390Z,22.55
2022-07-26T17:18:50.533Z,22.49
2022-07-26T17:19:52.278Z,22.42
2022-07-26T17:20:53.966Z,22.38
2022-07-26T17:21:55.631Z,22.36
2022-07-26T17:22:57.466Z,22.34
2022-07-26T17:24:03.854Z,22.32
2022-07-26T17:25:07.338Z,22.30
2022-07-26T17:26:09.024Z,22.27
2022-07-26T17:27:10.592Z,22.23
2022-07-26T17:28:12.588Z,22.18
2022-07-26T17:29:14.653Z,22.14
2022-07-26T17:30:16.426Z,22.12
2022-07-26T17:31:18.089Z,22.09
2022-07-26T17:32:19.727Z,22.07
2022-07-26T17:33:21.573Z,22.03
2022-07-26T17:34:23.393Z,21.99
2022-07-26T17:35:25.028Z,21.94
2022-07-26T17:36:27.581Z,21.88
2022-07-26T17:37:29.237Z,21.83
2022-07-26T17:38:31.040Z,21.78
2022-07-26T17:39:52.353Z,21.74
2022-07-26T17:40:54.587Z,21.69
2022-07-26T17:41:56.407Z,21.65
2022-07-26T17:42:57.960Z,21.62
2022-07-26T17:44:01.983Z,21.59
2022-07-26T17:45:05.029Z,21.57
2022-07-26T17:46:06.737Z,21.54
2022-07-26T17:47:27.704Z,21.53
2022-07-26T17:48:30.006Z,21.52
2022-07-26T17:49:31.950Z,21.51
2022-07-26T17:50:36.889Z,21.49
2022-07-26T17:51:39.702Z,21.45
2022-07-26T17:52:41.425Z,21.43
2022-07-26T17:53:43.723Z,21.41
2022-07-26T17:54:45.305Z,21.40
2022-07-26T17:55:46.999Z,21.39
2022-07-26T17:56:48.551Z,21.38
2022-07-26T17:57:50.468Z,21.36
2022-07-26T17:58:52.056Z,21.32
2022-07-26T17:59:53.846Z,21.27
2022-07-26T18:00:55.481Z,21.21
2022-07-26T18:01:57.157Z,21.17
2022-07-26T18:02:58.742Z,21.13
2022-07-26T18:04:00.382Z,21.08
2022-07-26T18:05:02.822Z,21.05
2022-07-26T18:06:05.882Z,21.00
2022-07-26T18:07:07.862Z,20.95
2022-07-26T18:08:09.651Z,20.89
2022-07-26T18:09:12.895Z,20.84
2022-07-26T18:10:14.970Z,20.81
2022-07-26T18:11:16.693Z,20.79
2022-07-26T18:12:18.341Z,20.76
2022-07-26T18:13:19.935Z,20.74
2022-07-26T18:14:22.058Z,20.71
2022-07-26T18:15:23.750Z,20.67
2022-07-26T18:16:26.733Z,20.64
2022-07-26T18:17:28.378Z,20.61
2022-07-26T18:18:29.887Z,20.57
2022-07-26T18:19:32.534Z,20.54
2022-07-26T18:20:34.211Z,20.50
2022-07-26T18:21:35.987Z,20.45
2022-07-26T18:22:37.780Z,20.42
2022-07-26T18:23:54.580Z,20.38
2022-07-26T18:25:01.268Z,20.31
2022-07-26T18:26:02.991Z,20.25
2022-07-26T18:27:04.776Z,20.19
2022-07-26T18:28:07.517Z,20.13
2022-07-26T18:29:09.401Z,20.08
2022-07-26T18:30:11.325Z,20.04
2022-07-26T18:31:13.193Z,19.98
2022-07-26T18:32:14.949Z,19.94
2022-07-26T18:33:16.565Z,19.90
2022-07-26T18:34:18.207Z,19.85
2022-07-26T18:35:19.947Z,19.80
2022-07-26T18:36:21.719Z,19.73
2022-07-26T18:37:23.385Z,19.68
2022-07-26T18:38:24.905Z,19.62
2022-07-26T18:39:32.806Z,19.57
2022-07-26T18:40:34.955Z,19.53
2022-07-26T18:41:36.651Z,19.50
2022-07-26T18:42:38.472Z,19.47
2022-07-26T18:43:40.141Z,19.45
2022-07-26T18:44:41.619Z,19.42
2022-07-26T18:45:43.286Z,19.41
2022-07-26T18:46:45.215Z,19.38
2022-07-26T18:47:46.914Z,19.35
2022-07-26T18:48:48.458Z,19.33
2022-07-26T18:49:50.312Z,19.31
2022-07-26T18:50:53.161Z,19.29
2022-07-26T18:51:54.879Z,19.24
2022-07-26T18:52:56.605Z,19.19
2022-07-26T18:53:58.185Z,19.16
2022-07-26T18:55:06.226Z,19.13
2022-07-26T18:56:07.787Z,19.11
2022-07-26T18:57:09.713Z,19.09
2022-07-26T18:58:11.385Z,19.07
2022-07-26T18:59:13.179Z,19.04
2022-07-26T19:00:16.826Z,19.01
2022-07-26T19:01:18.533Z,18.97
2022-07-26T19:02:20.199Z,18.94
2022-07-26T19:03:21.806Z,18.91
2022-07-26T19:04:23.426Z,18.90
2022-07-26T19:05:25.120Z,18.86
2022-07-26T19:06:27.338Z,18.83
2022-07-26T19:07:29.217Z,18.80
2022-07-26T19:08:30.930Z,18.78
2022-07-26T19:09:32.583Z,18.77
2022-07-26T19:10:34.228Z,18.75
2022-07-26T19:11:37.642Z,18.74
2022-07-26T19:12:39.844Z,18.72
2022-07-26T19:13:41.505Z,18.69
2022-07-26T19:14:43.041Z,18.67
2022-07-26T19:15:44.600Z,18.66
2022-07-26T19:16:46.223Z,18.64
2022-07-26T19:17:47.851Z,18.62
2022-07-26T19:18:52.745Z,18.60
2022-07-26T19:19:57.091Z,18.57
2022-07-26T19:20:59.399Z,18.55
2022-07-26T19:22:01.167Z,18.53
2022-07-26T19:23:16.037Z,18.51
2022-07-26T19:24:17.775Z,18.48
2022-07-26T19:25:19.279Z,18.46
2022-07-26T19:26:23.091Z,18.44
2022-07-26T19:27:24.670Z,18.42
2022-07-26T19:28:26.471Z,18.39
2022-07-26T19:29:28.153Z,18.36
2022-07-26T19:30:29.743Z,18.35
2022-07-26T19:31:31.442Z,18.33
2022-07-26T19:32:33.752Z,18.31
2022-07-26T19:33:35.854Z,18.29
2022-07-26T19:34:37.675Z,18.26
2022-07-26T19:35:39.208Z,18.24
2022-07-26T19:36:40.854Z,18.22
2022-07-26T19:37:43.678Z,18.19
2022-07-26T19:38:45.540Z,18.18